Time;durP1;ratioP1;P1;durP2;ratioP2;P2;SDS_P1;SDS_P2;PMS_P1;PMS_P2;Temp;Humidity;BMP_temperature;BMP_pressure;BME280_temperature;BME280_humidity;BME280_pressure;Samples;Min_cycle;Max_cycle;Signal;HPM_P1;HPM_P2
2023/06/03 00:01:59;;;;;;;24.83;14.75;;;;;;;12.84;87.41;101992.53;5093157;28;20108;-50
2023/06/03 00:04:24;;;;;;;23.30;14.55;;;;;;;12.77;88.23;101992.03;5093434;28;20380;-48
2023/06/03 00:06:49;;;;;;;23.23;14.20;;;;;;;12.70;88.13;101992.41;5093387;28;20035;-48
2023/06/03 00:09:14;;;;;;;24.70;14.45;;;;;;;12.75;87.57;101997.06;5093315;28;20049;-48
2023/06/03 00:11:42;;;;;;;26.20;13.98;;;;;;;12.66;87.93;101996.88;5093167;28;20028;-49
2023/06/03 00:14:07;;;;;;;23.88;14.30;;;;;;;12.60;88.09;101990.53;5093267;28;20030;-51
2023/06/03 00:16:32;;;;;;;24.70;14.52;;;;;;;12.65;87.02;101992.44;5092252;28;20031;-46
2023/06/03 00:18:58;;;;;;;23.85;13.38;;;;;;;12.67;87.10;101992.97;5092773;28;20048;-48
2023/06/03 00:21:24;;;;;;;24.00;13.85;;;;;;;12.64;87.18;101993.53;5093174;28;20384;-48
2023/06/03 00:23:49;;;;;;;23.88;13.70;;;;;;;12.56;87.00;101988.63;5093030;28;20510;-47
2023/06/03 00:26:15;;;;;;;24.67;14.27;;;;;;;12.50;86.52;101985.06;5093003;28;20020;-49
2023/06/03 00:28:41;;;;;;;24.83;14.20;;;;;;;12.47;87.08;101989.25;5092975;28;20032;-49
2023/06/03 00:31:06;;;;;;;23.40;13.75;;;;;;;12.46;86.48;101990.38;5092785;28;20063;-48
2023/06/03 00:33:31;;;;;;;24.63;13.88;;;;;;;12.45;87.04;101990.69;5092805;28;20024;-49
2023/06/03 00:35:57;;;;;;;23.98;13.25;;;;;;;12.40;87.69;101993.47;5092711;28;20063;-47
2023/06/03 00:38:22;;;;;;;24.55;14.30;;;;;;;12.40;87.07;101990.69;5092657;28;20024;-49
2023/06/03 00:40:47;;;;;;;24.92;14.68;;;;;;;12.36;87.68;101986.88;5088749;28;20452;-48
2023/06/03 00:43:12;;;;;;;25.02;14.05;;;;;;;12.33;87.98;101989.09;5092662;28;20028;-48
2023/06/03 00:45:38;;;;;;;24.85;14.35;;;;;;;12.27;88.17;101989.44;5092675;28;20059;-48
2023/06/03 00:48:03;;;;;;;22.00;13.57;;;;;;;12.24;88.10;101996.38;5092625;28;20061;-47
2023/06/03 00:50:28;;;;;;;23.42;13.80;;;;;;;12.22;88.16;101986.69;5092454;28;20035;-49
2023/06/03 00:52:54;;;;;;;21.88;13.77;;;;;;;12.16;88.57;101989.50;5092343;28;20028;-46
2023/06/03 00:55:19;;;;;;;24.25;13.50;;;;;;;12.17;87.82;101991.16;5092490;28;20036;-49
2023/06/03 00:57:45;;;;;;;23.50;13.82;;;;;;;12.16;88.30;101983.97;5092322;28;20447;-48
2023/06/03 01:00:11;;;;;;;21.98;13.23;;;;;;;12.10;88.95;101990.66;5092339;28;20020;-48
2023/06/03 01:02:36;;;;;;;26.52;14.63;;;;;;;12.06;89.14;101986.00;5092079;28;20169;-47
2023/06/03 01:05:04;;;;;;;23.33;13.88;;;;;;;12.03;88.83;101990.16;5092074;28;20032;-52
2023/06/03 01:08:01;;;;;;;25.35;13.68;;;;;;;11.99;88.92;101986.31;5092336;28;20040;-50
2023/06/03 01:10:43;;;;;;;23.08;13.77;;;;;;;11.98;88.56;101987.41;5107815;28;20031;-47
2023/06/03 01:13:22;;;;;;;24.50;14.05;;;;;;;11.95;89.12;101982.44;5112329;28;20435;-48
2023/06/03 01:15:53;;;;;;;24.42;13.90;;;;;;;11.93;89.09;101979.13;5112354;28;20024;-48
2023/06/03 01:18:19;;;;;;;23.83;13.80;;;;;;;11.87;89.50;101986.63;5112532;28;20460;-47
2023/06/03 01:20:45;;;;;;;23.88;14.10;;;;;;;11.83;89.60;101988.31;5094612;28;20580;-46
2023/06/03 01:23:13;;;;;;;24.90;14.90;;;;;;;11.81;89.70;101982.22;5092173;28;20494;-51
2023/06/03 01:25:41;;;;;;;25.83;14.75;;;;;;;11.75;90.21;101983.38;5092093;28;20581;-47
2023/06/03 01:28:07;;;;;;;23.35;14.20;;;;;;;11.78;89.88;101982.81;5091977;28;20113;-48
2023/06/03 01:30:33;;;;;;;24.65;13.88;;;;;;;11.76;90.02;101990.56;5107698;28;20028;-48
2023/06/03 01:32:59;;;;;;;25.40;14.10;;;;;;;11.69;89.79;101979.81;5112264;28;20063;-48
2023/06/03 01:35:25;;;;;;;22.90;14.15;;;;;;;11.68;90.17;101978.13;5111986;28;20070;-50
2023/06/03 01:37:51;;;;;;;23.40;13.98;;;;;;;11.66;89.89;101989.53;5112012;28;20052;-48
2023/06/03 01:40:17;;;;;;;24.00;14.10;;;;;;;11.60;91.10;101990.66;5110585;28;20157;-53
2023/06/03 01:42:42;;;;;;;23.33;13.75;;;;;;;11.59;91.03;101994.56;5108139;28;20099;-49
2023/06/03 01:45:08;;;;;;;24.63;13.57;;;;;;;11.55;90.90;101993.44;5111966;28;20494;-46
2023/06/03 01:47:34;;;;;;;24.25;14.13;;;;;;;11.51;90.65;102000.69;5112084;28;20513;-50
2023/06/03 01:49:59;;;;;;;24.23;14.85;;;;;;;11.43;91.87;102001.28;5111869;28;20119;-50
2023/06/03 01:52:26;;;;;;;24.42;14.15;;;;;;;11.38;92.38;101997.41;5112140;28;20107;-50
2023/06/03 01:54:51;;;;;;;26.08;14.65;;;;;;;11.33;92.47;101994.69;5111961;28;20491;-49
2023/06/03 01:57:17;;;;;;;24.20;14.13;;;;;;;11.33;92.03;101996.59;5111893;28;20039;-46
2023/06/03 01:59:42;;;;;;;23.63;13.73;;;;;;;11.32;91.95;102006.88;5111440;28;20342;-46
2023/06/03 02:02:07;;;;;;;23.02;14.23;;;;;;;11.27;93.25;101994.97;5111717;28;20035;-46
2023/06/03 02:04:33;;;;;;;22.40;13.88;;;;;;;11.27;92.81;101997.75;5111792;28;20035;-46
2023/06/03 02:07:00;;;;;;;23.73;14.02;;;;;;;11.23;92.99;101984.44;5111687;28;20070;-48
2023/06/03 02:09:29;;;;;;;23.30;14.00;;;;;;;11.22;93.18;101984.75;5111181;28;20035;-46
2023/06/03 02:11:56;;;;;;;23.05;13.82;;;;;;;11.21;93.39;101986.66;5111678;28;20071;-47
2023/06/03 02:14:22;;;;;;;24.05;14.27;;;;;;;11.20;93.89;101995.28;5111726;28;20046;-47
2023/06/03 02:16:48;;;;;;;24.05;14.38;;;;;;;11.16;93.75;101983.09;5110647;28;20066;-48
2023/06/03 02:19:16;;;;;;;23.83;14.35;;;;;;;11.18;93.49;101978.94;5111574;28;20464;-45
2023/06/03 02:21:42;;;;;;;26.40;14.45;;;;;;;11.17;93.96;101982.81;5111854;28;20093;-47
2023/06/03 02:24:08;;;;;;;23.33;14.15;;;;;;;11.19;93.88;101996.38;5111546;28;20024;-45
2023/06/03 02:26:34;;;;;;;22.80;13.98;;;;;;;11.19;93.69;101983.34;5111821;28;20028;-47
2023/06/03 02:28:59;;;;;;;21.20;13.23;;;;;;;11.21;93.27;101983.09;5111708;28;20399;-45
2023/06/03 02:31:25;;;;;;;22.92;14.00;;;;;;;11.20;93.30;101981.41;5111424;28;20125;-47
2023/06/03 02:33:50;;;;;;;21.98;14.05;;;;;;;11.19;93.13;101979.75;5111603;28;20030;-49
2023/06/03 02:36:18;;;;;;;22.83;13.90;;;;;;;11.17;93.60;101984.75;5111306;28;20129;-45
2023/06/03 02:38:43;;;;;;;21.58;13.60;;;;;;;11.16;93.04;101983.94;5107997;28;20028;-46
2023/06/03 02:41:09;;;;;;;21.42;13.85;;;;;;;11.15;93.40;101985.03;5114980;28;20490;-45
2023/06/03 02:43:34;;;;;;;22.75;12.95;;;;;;;11.17;93.03;101985.59;5115456;28;20118;-48
2023/06/03 02:46:00;;;;;;;23.42;13.57;;;;;;;11.17;93.12;101991.13;5100156;28;20372;-46
2023/06/03 02:48:25;;;;;;;21.17;13.20;;;;;;;11.16;92.51;101986.69;5094886;28;20028;-46
2023/06/03 02:50:50;;;;;;;20.90;13.52;;;;;;;11.17;92.19;101990.28;5094702;28;20039;-49
2023/06/03 02:53:17;;;;;;;22.58;12.93;;;;;;;11.18;92.12;101986.41;5094608;28;20128;-49
2023/06/03 02:55:42;;;;;;;22.40;13.55;;;;;;;11.16;92.47;101985.84;5094615;28;20031;-45
2023/06/03 02:58:08;;;;;;;21.80;12.93;;;;;;;11.12;92.45;101990.31;5094477;28;20028;-47
2023/06/03 03:00:34;;;;;;;20.45;12.88;;;;;;;11.11;92.11;101991.41;5104855;28;20152;-46
2023/06/03 03:03:00;;;;;;;21.70;13.30;;;;;;;11.12;91.93;101996.66;5114602;28;20023;-49
2023/06/03 03:05:25;;;;;;;21.58;13.10;;;;;;;11.06;92.03;101987.53;5114139;28;20481;-48
2023/06/03 03:07:51;;;;;;;24.95;13.45;;;;;;;11.05;92.27;101987.84;5114513;28;20027;-50
2023/06/03 03:10:16;;;;;;;20.98;12.93;;;;;;;11.01;92.15;101987.56;5114424;28;20023;-47
2023/06/03 03:12:41;;;;;;;21.27;13.05;;;;;;;10.99;91.77;101983.44;5114636;28;20035;-50
2023/06/03 03:15:07;;;;;;;21.60;13.05;;;;;;;10.97;92.12;101983.69;5108231;27;20020;-48
2023/06/03 03:17:33;;;;;;;23.25;12.88;;;;;;;10.98;92.28;101990.91;5093286;28;20028;-52
2023/06/03 03:19:59;;;;;;;22.85;13.63;;;;;;;10.95;91.86;101990.63;5093829;28;20044;-47
2023/06/03 03:22:27;;;;;;;23.08;13.15;;;;;;;10.94;91.89;101987.03;5093460;28;20135;-49
2023/06/03 03:24:55;;;;;;;22.58;13.13;;;;;;;10.92;92.00;101992.03;5093544;28;20083;-49
2023/06/03 03:27:20;;;;;;;21.63;12.75;;;;;;;10.89;92.17;101998.13;5073156;28;20395;-46
2023/06/03 03:29:45;;;;;;;21.23;12.68;;;;;;;10.87;92.05;101997.56;5074911;28;20034;-46
2023/06/03 03:32:12;;;;;;;22.05;13.60;;;;;;;10.86;92.31;101993.97;5093458;28;20055;-47
2023/06/03 03:34:38;;;;;;;20.35;12.63;;;;;;;10.88;91.58;101994.53;5089048;28;20533;-47
2023/06/03 03:37:04;;;;;;;19.83;13.10;;;;;;;10.91;91.58;101990.38;5093484;28;20036;-47
2023/06/03 03:39:30;;;;;;;21.23;12.68;;;;;;;10.88;91.94;101994.53;5093336;28;20032;-48
2023/06/03 03:41:55;;;;;;;20.08;12.73;;;;;;;10.90;91.61;101999.78;5093467;28;20020;-49
2023/06/03 03:44:22;;;;;;;22.15;13.18;;;;;;;10.88;91.42;102000.06;5093630;28;20064;-46
2023/06/03 03:46:59;;;;;;;21.48;12.75;;;;;;;10.89;91.68;102007.25;5093391;28;20032;-48
2023/06/03 03:49:28;;;;;;;20.88;12.73;;;;;;;10.89;91.42;102009.19;5093504;28;20028;-47
2023/06/03 03:51:56;;;;;;;21.10;12.75;;;;;;;10.85;91.45;102000.63;5093509;28;20093;-48
2023/06/03 03:54:23;;;;;;;20.23;12.50;;;;;;;10.99;90.81;102009.16;5093724;28;20024;-47
2023/06/03 03:56:53;;;;;;;21.55;12.52;;;;;;;11.09;90.22;102008.31;5093540;28;20024;-48
2023/06/03 03:59:18;;;;;;;22.92;12.23;;;;;;;11.14;89.92;102008.31;5093096;28;20412;-48
2023/06/03 04:01:44;;;;;;;21.80;12.52;;;;;;;11.11;90.05;102014.41;5108412;28;20027;-47
2023/06/03 04:04:10;;;;;;;23.50;12.48;;;;;;;11.07;89.88;102011.38;5113599;28;20023;-46
2023/06/03 04:06:37;;;;;;;20.92;12.35;;;;;;;11.05;90.12;102007.22;5113348;28;20028;-46
2023/06/03 04:09:07;;;;;;;20.52;12.35;;;;;;;11.03;90.50;102013.06;5113757;28;20035;-48
2023/06/03 04:11:46;;;;;;;21.48;12.43;;;;;;;11.01;90.43;102012.50;5113130;28;20022;-47
2023/06/03 04:14:15;;;;;;;19.55;11.60;;;;;;;11.01;90.65;102012.50;5112377;28;20034;-46
2023/06/03 04:16:46;;;;;;;21.88;11.90;;;;;;;10.98;90.67;102013.03;5113207;28;20024;-45
2023/06/03 04:19:36;;;;;;;20.52;12.32;;;;;;;10.95;90.57;102013.63;5113036;28;20090;-47
2023/06/03 04:22:06;;;;;;;21.38;11.63;;;;;;;10.98;90.47;102013.03;5113226;28;20043;-50
2023/06/03 04:24:36;;;;;;;20.38;12.15;;;;;;;10.99;90.30;102014.72;5113147;28;20031;-47
2023/06/03 04:27:02;;;;;;;19.90;11.80;;;;;;;11.02;90.08;102019.69;5094955;28;20089;-48
2023/06/03 04:29:28;;;;;;;20.48;11.68;;;;;;;11.07;89.96;102019.66;5089942;28;20028;-52
2023/06/03 04:31:53;;;;;;;20.13;11.77;;;;;;;11.12;88.88;102018.00;5091445;28;20372;-47
2023/06/03 04:34:19;;;;;;;22.08;11.80;;;;;;;11.14;89.02;102021.34;5092530;28;20063;-49
2023/06/03 04:36:44;;;;;;;20.90;11.68;;;;;;;11.17;87.66;102027.13;5092466;28;20040;-49
2023/06/03 04:39:10;;;;;;;21.88;11.18;;;;;;;11.20;87.48;102018.25;5092374;28;20027;-49
2023/06/03 04:41:37;;;;;;;21.08;11.07;;;;;;;11.25;87.06;102020.16;5092534;28;20119;-49
2023/06/03 04:44:03;;;;;;;20.50;11.50;;;;;;;11.29;86.76;102020.47;5092557;28;20020;-46
2023/06/03 04:46:29;;;;;;;18.77;10.93;;;;;;;11.39;86.16;102023.16;5092458;28;20372;-48
2023/06/03 04:49:01;;;;;;;20.80;11.63;;;;;;;11.44;85.39;102022.31;5092535;28;20391;-50
2023/06/03 04:51:29;;;;;;;19.00;10.90;;;;;;;11.51;84.37;102020.09;5092548;28;20032;-50
2023/06/03 04:53:59;;;;;;;19.92;11.18;;;;;;;11.56;84.00;102022.81;5092477;28;20032;-45
2023/06/03 04:56:24;;;;;;;20.17;10.95;;;;;;;11.67;83.70;102023.59;5092455;28;20042;-46
2023/06/03 04:58:54;;;;;;;21.45;10.68;;;;;;;11.75;82.60;102024.97;5092496;28;20015;-46
2023/06/03 05:01:21;;;;;;;19.08;10.45;;;;;;;11.84;81.33;102028.78;5091847;28;20499;-48
2023/06/03 05:03:46;;;;;;;20.15;10.13;;;;;;;11.87;80.04;102025.44;5091955;28;20024;-51
2023/06/03 05:06:11;;;;;;;19.65;10.27;;;;;;;11.90;79.63;102027.66;5100598;28;20475;-50
2023/06/03 05:08:40;;;;;;;18.85;10.48;;;;;;;11.95;77.67;102032.34;5112503;28;20028;-47
2023/06/03 05:11:05;;;;;;;20.02;10.20;;;;;;;12.02;78.24;102019.03;5112352;28;20542;-47
2023/06/03 05:13:31;;;;;;;19.38;9.75;;;;;;;12.09;76.95;102038.13;5111618;28;20040;-48
2023/06/03 05:15:56;;;;;;;19.00;10.00;;;;;;;12.13;76.55;102028.94;5106302;28;20028;-50
2023/06/03 05:18:22;;;;;;;18.88;10.25;;;;;;;12.21;76.20;102030.25;5092121;28;20048;-47
2023/06/03 05:20:47;;;;;;;19.30;9.93;;;;;;;12.29;76.05;102028.81;5092096;28;20027;-49
2023/06/03 05:23:12;;;;;;;19.80;10.10;;;;;;;12.33;74.07;102027.09;5092091;28;20051;-51
2023/06/03 05:25:38;;;;;;;16.67;9.65;;;;;;;12.37;72.77;102032.94;5094835;28;20032;-49
2023/06/03 05:28:03;;;;;;;18.73;9.63;;;;;;;12.43;73.85;102024.25;5112658;28;20076;-51
2023/06/03 05:30:28;;;;;;;18.83;9.70;;;;;;;12.47;72.34;102028.13;5108267;28;20039;-51
2023/06/03 05:32:54;;;;;;;19.60;9.38;;;;;;;12.54;73.50;102035.28;5106095;28;20032;-51
2023/06/03 05:35:19;;;;;;;17.48;9.75;;;;;;;12.61;72.47;102036.59;5085998;28;20085;-51
2023/06/03 05:37:45;;;;;;;19.77;9.80;;;;;;;12.67;71.99;102031.84;5083301;28;20042;-46
2023/06/03 05:40:10;;;;;;;20.35;9.82;;;;;;;12.76;71.53;102029.25;5080332;28;20074;-50
2023/06/03 05:42:36;;;;;;;17.40;9.90;;;;;;;12.82;71.09;102030.03;5081767;28;20032;-49
2023/06/03 05:45:01;;;;;;;19.40;9.40;;;;;;;12.87;70.90;102032.78;5069214;28;20152;-53
2023/06/03 05:47:27;;;;;;;17.30;9.35;;;;;;;12.98;70.67;102031.56;5083118;28;20037;-49
2023/06/03 05:49:52;;;;;;;16.65;9.57;;;;;;;13.07;69.58;102031.72;5080964;28;20030;-50
2023/06/03 05:52:17;;;;;;;17.83;9.80;;;;;;;13.09;68.45;102029.47;5085151;28;20431;-50
2023/06/03 05:54:43;;;;;;;17.67;9.60;;;;;;;13.19;69.56;102029.38;5079481;28;20040;-51
2023/06/03 05:57:08;;;;;;;19.67;9.63;;;;;;;13.25;67.48;102032.94;5080802;28;20540;-50
2023/06/03 05:59:33;;;;;;;16.17;9.23;;;;;;;13.27;66.93;102025.13;5079337;28;20016;-48
2023/06/03 06:01:59;;;;;;;17.30;9.40;;;;;;;13.29;66.38;102031.19;5078170;28;20032;-47
2023/06/03 06:04:24;;;;;;;16.30;9.23;;;;;;;13.38;66.53;102025.81;5079565;28;20020;-47
2023/06/03 06:06:49;;;;;;;16.83;9.27;;;;;;;13.45;65.67;102033.84;5081990;28;20081;-46
2023/06/03 06:09:15;;;;;;;17.55;9.43;;;;;;;13.51;64.83;102027.09;5081621;28;20446;-47
2023/06/03 06:11:42;;;;;;;18.00;9.15;;;;;;;13.50;63.55;102025.41;5082249;28;20076;-49
2023/06/03 06:14:07;;;;;;;18.15;9.27;;;;;;;13.56;63.96;102032.56;5082049;28;20028;-50
2023/06/03 06:16:33;;;;;;;15.90;9.10;;;;;;;13.63;62.33;102029.44;5086838;28;20498;-47
2023/06/03 06:18:58;;;;;;;17.60;9.20;;;;;;;13.68;62.65;102032.16;5086313;28;20136;-48
2023/06/03 06:21:23;;;;;;;19.13;8.98;;;;;;;13.75;62.20;102034.53;5083882;28;20021;-50
2023/06/03 06:23:49;;;;;;;17.73;9.20;;;;;;;13.82;60.92;102037.81;5093664;28;20080;-46
2023/06/03 06:26:16;;;;;;;16.55;8.82;;;;;;;13.92;61.84;102032.09;5092438;28;20028;-48
2023/06/03 06:28:41;;;;;;;17.48;8.80;;;;;;;14.02;60.51;102040.31;5095214;28;20024;-47
2023/06/03 06:31:07;;;;;;;16.25;8.60;;;;;;;14.12;60.74;102041.28;5095258;28;20031;-49
2023/06/03 06:33:34;;;;;;;16.10;8.68;;;;;;;14.18;60.44;102037.28;5094754;28;20028;-47
2023/06/03 06:36:23;;;;;;;17.63;9.00;;;;;;;14.34;61.13;102043.44;5094950;28;20105;-51
2023/06/03 06:38:48;;;;;;;17.50;8.77;;;;;;;14.44;59.43;102042.44;5095012;28;20035;-52
2023/06/03 06:41:15;;;;;;;15.75;8.43;;;;;;;14.51;58.85;102032.59;5094842;28;20028;-51
2023/06/03 06:43:40;;;;;;;15.93;8.45;;;;;;;14.61;57.53;102037.13;5094950;28;20028;-49
2023/06/03 06:46:05;;;;;;;18.75;9.00;;;;;;;14.68;57.70;102034.00;5095020;28;20498;-48
2023/06/03 06:48:34;;;;;;;16.08;8.52;;;;;;;14.73;56.74;102035.88;5094774;28;20059;-50
2023/06/03 06:51:00;;;;;;;14.43;8.23;;;;;;;14.79;56.95;102035.47;5094643;28;20123;-47
2023/06/03 06:53:27;;;;;;;16.58;8.45;;;;;;;14.89;56.56;102036.44;5094940;28;20158;-48
2023/06/03 06:56:00;;;;;;;18.45;8.30;;;;;;;15.00;56.36;102039.84;5094569;28;20051;-51
2023/06/03 06:58:30;;;;;;;18.50;9.20;;;;;;;15.08;55.93;102037.19;5094695;28;20036;-46
2023/06/03 07:00:57;;;;;;;17.15;8.13;;;;;;;15.17;56.05;102040.06;5094604;28;20021;-48
2023/06/03 07:03:22;;;;;;;19.67;9.10;;;;;;;15.33;55.48;102042.56;5074369;28;20032;-51
2023/06/03 07:05:52;;;;;;;19.63;9.35;;;;;;;15.36;52.87;102042.78;5084791;28;20114;-48
2023/06/03 07:08:18;;;;;;;15.57;7.85;;;;;;;15.48;53.74;102045.03;5094554;28;20077;-48
2023/06/03 07:10:44;;;;;;;15.57;8.05;;;;;;;15.55;52.68;102037.06;5086727;28;20032;-48
2023/06/03 07:13:09;;;;;;;17.05;7.93;;;;;;;15.59;52.31;102037.28;5081449;28;20765;-48
2023/06/03 07:15:39;;;;;;;16.42;8.15;;;;;;;15.64;51.77;102039.13;5077993;28;20036;-49
2023/06/03 07:18:04;;;;;;;15.30;7.60;;;;;;;15.69;50.60;102042.63;5108182;28;20039;-48
2023/06/03 07:20:34;;;;;;;17.80;8.00;;;;;;;15.75;50.49;102041.41;5111067;28;20027;-48
2023/06/03 07:23:01;;;;;;;14.13;7.30;;;;;;;15.88;50.50;102038.91;5114538;28;20134;-48
2023/06/03 07:25:35;;;;;;;16.30;7.80;;;;;;;15.96;49.17;102038.19;5114130;28;20039;-51
2023/06/03 07:28:12;;;;;;;15.07;7.88;;;;;;;16.11;50.79;102027.81;5114262;28;20032;-49
2023/06/03 07:30:39;;;;;;;16.10;8.07;;;;;;;16.16;48.54;102048.06;5114440;28;20050;-50
2023/06/03 07:33:06;;;;;;;14.95;7.57;;;;;;;16.28;47.61;102041.91;5097752;28;20364;-47
2023/06/03 07:35:33;;;;;;;14.45;7.30;;;;;;;16.37;48.54;102042.78;5094137;28;20508;-51
2023/06/03 07:37:59;;;;;;;17.02;7.70;;;;;;;16.51;47.72;102041.91;5094075;28;20031;-51
2023/06/03 07:40:38;;;;;;;14.55;7.93;;;;;;;16.57;47.65;102046.22;5093868;28;20036;-50
2023/06/03 07:43:04;;;;;;;14.98;7.90;;;;;;;16.57;47.44;102045.41;5093838;28;20058;-51
2023/06/03 07:45:29;;;;;;;14.93;7.53;;;;;;;16.68;48.20;102041.19;5093848;28;20055;-47
2023/06/03 07:47:56;;;;;;;15.48;7.80;;;;;;;16.80;47.31;102037.84;5093686;28;20039;-47
2023/06/03 07:50:26;;;;;;;12.38;6.93;;;;;;;16.93;46.83;102036.94;5093825;28;20032;-50
2023/06/03 07:53:00;;;;;;;14.55;7.10;;;;;;;17.12;45.11;102033.91;5093701;28;20031;-49
2023/06/03 07:55:25;;;;;;;13.30;7.22;;;;;;;17.20;43.55;102040.69;5093645;28;20038;-51
2023/06/03 07:57:51;;;;;;;13.85;7.22;;;;;;;17.20;44.07;102040.69;5106525;28;20024;-50
2023/06/03 08:00:17;;;;;;;15.68;7.05;;;;;;;17.33;43.95;102046.50;5113927;28;20466;-49
2023/06/03 08:02:43;;;;;;;14.32;7.15;;;;;;;17.41;43.05;102046.53;5113581;28;20031;-49
2023/06/03 08:05:08;;;;;;;15.32;6.97;;;;;;;17.45;40.52;102050.31;5113834;28;20039;-52
2023/06/03 08:07:34;;;;;;;11.82;7.10;;;;;;;17.46;41.62;102059.56;5113522;28;20471;-48
2023/06/03 08:09:59;;;;;;;14.32;7.10;;;;;;;17.49;41.42;102055.28;5113797;28;20031;-52
2023/06/03 08:12:34;;;;;;;18.38;6.90;;;;;;;17.53;41.61;102054.31;5100450;28;20031;-48
2023/06/03 08:15:03;;;;;;;15.27;6.88;;;;;;;17.61;40.39;102055.47;5076315;28;20040;-50
2023/06/03 08:17:40;;;;;;;14.52;6.90;;;;;;;17.61;39.96;102053.50;5081745;28;20032;-49
2023/06/03 08:20:10;;;;;;;13.43;6.90;;;;;;;17.66;39.29;102049.72;5093398;28;20035;-50
2023/06/03 08:22:38;;;;;;;12.93;6.97;;;;;;;17.77;39.17;102044.63;5102544;28;20043;-48
2023/06/03 08:25:04;;;;;;;15.45;7.03;;;;;;;17.80;37.37;102046.78;5113371;28;20420;-51
2023/06/03 08:27:31;;;;;;;13.00;6.90;;;;;;;17.87;36.57;102049.91;5104658;28;20024;-53
2023/06/03 08:29:57;;;;;;;13.60;6.60;;;;;;;17.96;36.69;102049.97;5091945;28;20047;-49
2023/06/03 08:32:22;;;;;;;13.00;7.03;;;;;;;17.86;36.55;102047.47;5098614;28;20454;-48
2023/06/03 08:34:48;;;;;;;12.93;6.80;;;;;;;17.95;37.66;102036.28;5112121;28;20035;-51
2023/06/03 08:37:13;;;;;;;13.25;6.47;;;;;;;18.02;37.66;102042.25;5110891;28;20107;-51
2023/06/03 08:39:39;;;;;;;13.65;6.28;;;;;;;18.08;38.32;102055.75;5112118;28;20020;-52
2023/06/03 08:42:12;;;;;;;18.48;7.20;;;;;;;18.15;38.00;102037.63;5111709;28;20031;-51
2023/06/03 08:44:50;;;;;;;13.68;6.95;;;;;;;18.24;37.83;102032.84;5113144;27;20036;-51
2023/06/03 08:47:34;;;;;;;16.10;7.03;;;;;;;18.35;36.79;102047.34;5107759;28;20039;-50
2023/06/03 08:50:03;;;;;;;;;;;;;;;18.40;36.35;102034.00;5093163;28;20028;-51
2023/06/03 08:52:33;;;;;;;12.23;6.50;;;;;;;18.44;36.56;102038.94;5092655;28;19990;-51
2023/06/03 08:55:00;;;;;;;14.60;6.60;;;;;;;18.51;35.80;102028.03;5090906;28;20020;-53
2023/06/03 08:57:47;;;;;;;13.65;6.50;;;;;;;18.56;35.28;102033.50;5090532;28;20020;-51
2023/06/03 09:00:15;;;;;;;18.65;7.50;;;;;;;18.65;36.35;102037.09;5060426;28;20047;-51
2023/06/03 09:02:41;;;;;;;15.63;6.13;;;;;;;18.73;35.60;102054.22;5092274;28;20415;-50
2023/06/03 09:05:07;;;;;;;11.25;5.70;;;;;;;18.79;34.41;102045.31;5092313;28;20024;-50
2023/06/03 09:07:33;;;;;;;11.45;6.03;;;;;;;18.80;34.49;102037.72;5098682;28;20030;-48
2023/06/03 09:10:00;;;;;;;12.73;6.30;;;;;;;18.80;34.83;102040.53;5112532;28;20027;-49
2023/06/03 09:12:26;;;;;;;12.18;6.07;;;;;;;18.86;34.81;102041.97;5108996;28;20052;-49
2023/06/03 09:14:55;;;;;;;14.18;6.18;;;;;;;18.87;34.96;102043.63;5112360;28;20387;-47
2023/06/03 09:17:20;;;;;;;15.32;6.70;;;;;;;18.79;34.41;102044.47;5112409;28;20483;-50
2023/06/03 09:19:46;;;;;;;10.68;6.10;;;;;;;18.95;35.63;102040.00;5112097;28;20107;-49
2023/06/03 09:22:13;;;;;;;13.13;6.30;;;;;;;19.14;35.24;102042.44;5102104;28;20050;-51
2023/06/03 09:24:38;;;;;;;13.50;6.18;;;;;;;19.24;34.56;102035.59;5074500;28;20564;-49
2023/06/03 09:27:04;;;;;;;10.88;5.82;;;;;;;19.33;33.65;102030.78;5073196;28;20028;-50
2023/06/03 09:29:30;;;;;;;11.45;6.00;;;;;;;19.37;34.19;102036.53;5092240;28;20113;-50
2023/06/03 09:31:57;;;;;;;12.18;6.07;;;;;;;19.25;34.28;102023.22;5090313;28;20114;-50
2023/06/03 09:34:22;;;;;;;12.63;6.13;;;;;;;19.34;34.03;102006.38;5091593;28;20050;-48
2023/06/03 09:36:49;;;;;;;12.55;6.53;;;;;;;19.49;33.56;102024.59;5091920;28;20450;-51
2023/06/03 09:39:17;;;;;;;12.48;5.80;;;;;;;19.26;31.11;102027.69;5111064;28;20035;-48
2023/06/03 09:41:44;;;;;;;10.00;5.85;;;;;;;19.29;31.69;102017.75;5112210;28;20027;-50
2023/06/03 09:44:10;;;;;;;11.20;5.70;;;;;;;19.44;31.62;102017.19;5111961;28;20107;-53
2023/06/03 09:46:36;;;;;;;10.82;5.90;;;;;;;19.52;31.21;102029.53;5112377;28;20035;-48
2023/06/03 09:49:11;;;;;;;12.73;5.95;;;;;;;19.49;30.50;102021.81;5115063;28;20053;-48
2023/06/03 09:51:41;;;;;;;13.05;5.82;;;;;;;19.44;28.95;102022.81;5116213;28;20020;-48
2023/06/03 09:54:14;;;;;;;9.85;5.65;;;;;;;19.48;30.08;102023.75;5115970;27;20114;-50
2023/06/03 09:56:40;;;;;;;;;;;;;;;19.53;29.57;102031.16;5116536;28;20489;-50
2023/06/03 09:59:25;;;;;;;11.30;5.43;;;;;;;19.47;29.29;102019.31;5115757;28;20015;-50
2023/06/03 10:01:52;;;;;;;9.10;5.50;;;;;;;19.51;27.88;102013.84;5116153;28;20108;-49
2023/06/03 10:04:44;;;;;;;9.43;5.60;;;;;;;19.67;28.83;102035.72;5116177;28;20041;-50
2023/06/03 10:07:17;;;;;;;9.50;5.53;;;;;;;19.71;27.83;102014.22;5110322;28;20032;-52
2023/06/03 10:09:44;;;;;;;10.57;5.60;;;;;;;19.78;28.02;102020.13;5116124;28;20030;-50
2023/06/03 10:12:11;;;;;;;11.27;5.40;;;;;;;19.94;27.97;102023.16;5115970;28;20112;-50
2023/06/03 10:14:44;;;;;;;12.02;5.53;;;;;;;20.06;27.69;102033.66;5115525;27;20028;-50
2023/06/03 10:17:12;;;;;;;10.07;5.35;;;;;;;19.89;27.52;102031.81;5115742;28;20043;-48
2023/06/03 10:19:39;;;;;;;10.07;5.22;;;;;;;19.93;27.55;102029.97;5115139;28;20052;-47
2023/06/03 10:22:06;;;;;;;9.27;5.22;;;;;;;20.07;29.21;102027.69;5115835;27;20183;-48
2023/06/03 10:24:34;;;;;;;10.57;5.10;;;;;;;20.15;28.02;102037.22;5115607;28;20028;-50
2023/06/03 10:27:01;;;;;;;11.65;5.50;;;;;;;20.10;26.99;102023.38;5115828;28;20054;-52
2023/06/03 10:29:29;;;;;;;12.15;5.45;;;;;;;20.24;27.72;102017.47;5092113;28;20052;-50
2023/06/03 10:31:57;;;;;;;9.38;5.45;;;;;;;20.15;26.59;102028.78;5093054;28;20074;-50
2023/06/03 10:34:22;;;;;;;7.38;5.30;;;;;;;20.20;26.83;102022.97;5091030;28;20028;-48
2023/06/03 10:36:52;;;;;;;8.48;5.45;;;;;;;20.32;26.37;102027.00;5092096;28;20391;-48
2023/06/03 10:39:18;;;;;;;11.50;5.30;;;;;;;20.35;26.15;102020.69;5090999;28;20490;-52
2023/06/03 10:41:44;;;;;;;9.50;5.38;;;;;;;20.19;25.80;102024.13;5074837;28;20052;-48
2023/06/03 10:44:10;;;;;;;11.50;5.53;;;;;;;20.44;26.35;102024.25;5085873;28;20370;-48
2023/06/03 10:46:45;;;;;;;7.57;5.15;;;;;;;20.66;26.07;102013.75;5084995;28;20142;-55
2023/06/03 10:49:14;;;;;;;11.25;5.00;;;;;;;20.66;25.84;102017.41;5094913;28;20050;-49
2023/06/03 10:52:38;;;;;;;13.88;6.05;;;;;;;20.80;25.99;102027.53;5094851;28;20178;-48
2023/06/03 10:55:19;;;;;;;8.23;5.00;;;;;;;20.59;25.41;102019.97;5052259;28;20098;-51
2023/06/03 10:57:47;;;;;;;9.07;5.20;;;;;;;20.57;25.78;102009.03;5052377;28;20037;-47
2023/06/03 11:00:51;;;;;;;8.00;5.10;;;;;;;20.69;25.54;102022.31;5081443;28;20032;-50
2023/06/03 11:03:17;;;;;;;8.07;5.10;;;;;;;20.64;25.36;102010.50;5093580;28;20089;-48
2023/06/03 11:05:44;;;;;;;9.68;5.22;;;;;;;20.68;26.20;102014.22;5094160;28;20024;-48
2023/06/03 11:08:09;;;;;;;10.68;5.45;;;;;;;20.82;26.07;102003.53;5094740;28;20066;-47
2023/06/03 11:10:35;;;;;;;9.35;5.20;;;;;;;20.87;26.14;102014.53;5094186;28;20055;-49
2023/06/03 11:13:01;;;;;;;8.05;5.15;;;;;;;20.99;26.28;101996.84;5093636;28;20463;-47
2023/06/03 11:16:01;;;;;;;10.63;5.40;;;;;;;21.07;26.41;102016.78;5093410;28;20055;-52
2023/06/03 11:18:28;;;;;;;9.85;5.30;;;;;;;20.99;25.68;102010.91;5092855;28;20040;-50